createdAt,value
2019-04-27T00:02:23.045Z,67.47
2019-04-27T00:05:00.448Z,67.69
2019-04-27T00:07:39.623Z,68.25
2019-04-27T00:10:13.740Z,68.93
2019-04-27T00:12:45.497Z,69.07
2019-04-27T00:15:24.680Z,69.67
2019-04-27T00:17:58.494Z,69.81
2019-04-27T00:20:49.984Z,69.86
2019-04-27T00:23:26.391Z,70.01
2019-04-27T00:25:59.311Z,69.91
2019-04-27T00:28:31.201Z,69.81
2019-04-27T00:31:03.417Z,70.03
2019-04-27T00:33:35.547Z,69.99
2019-04-27T00:36:18.034Z,69.68
2019-04-27T00:38:54.128Z,69.26
2019-04-27T00:41:26.968Z,69.44
2019-04-27T00:43:58.534Z,69.30
2019-04-27T00:46:30.263Z,69.32
2019-04-27T00:49:03.599Z,69.28
2019-04-27T00:51:35.641Z,69.33
2019-04-27T00:54:07.449Z,69.50
2019-04-27T00:56:56.862Z,69.43
2019-04-27T00:59:46.463Z,69.67
2019-04-27T01:02:18.121Z,69.54
2019-04-27T01:04:50.150Z,69.56
2019-04-27T01:07:22.736Z,69.57
2019-04-27T01:09:55.556Z,69.41
2019-04-27T01:12:27.211Z,69.43
2019-04-27T01:14:59.946Z,69.62
2019-04-27T01:17:31.988Z,69.20
2019-04-27T01:20:04.200Z,69.30
2019-04-27T01:22:39.205Z,69.39
2019-04-27T01:25:11.484Z,69.35
2019-04-27T01:28:03.333Z,69.38
2019-04-27T01:30:46.141Z,69.07
2019-04-27T01:33:19.793Z,69.25
2019-04-27T01:35:51.748Z,69.20
2019-04-27T01:38:23.493Z,69.33
2019-04-27T01:40:55.263Z,69.40
2019-04-27T01:43:28.514Z,69.54
2019-04-27T01:46:01.070Z,69.65
2019-04-27T01:48:33.276Z,69.45
2019-04-27T01:51:05.416Z,69.55
2019-04-27T01:53:38.883Z,69.28
2019-04-27T01:56:10.727Z,69.59
2019-04-27T01:58:42.466Z,69.43
2019-04-27T02:01:18.767Z,69.39
2019-04-27T02:03:59.770Z,69.45
2019-04-27T02:06:31.778Z,69.70
2019-04-27T02:09:03.619Z,69.73
2019-04-27T02:11:38.804Z,69.82
2019-04-27T02:14:10.964Z,70.15
2019-04-27T02:16:42.681Z,70.35
2019-04-27T02:19:15.595Z,70.31
2019-04-27T02:21:47.367Z,70.26
2019-04-27T02:24:20.696Z,70.24
2019-04-27T02:26:52.726Z,70.29
2019-04-27T02:29:34.968Z,70.41
2019-04-27T02:32:10.519Z,70.68
2019-04-27T02:34:52.403Z,70.56
2019-04-27T02:37:24.063Z,70.66
2019-04-27T02:39:56.475Z,70.64
2019-04-27T02:42:29.864Z,70.55
2019-04-27T02:45:01.400Z,71.06
2019-04-27T02:47:33.270Z,70.88
2019-04-27T02:50:05.859Z,70.99
2019-04-27T02:52:40.413Z,71.06
2019-04-27T02:55:13.240Z,71.27
2019-04-27T02:57:44.886Z,71.19
2019-04-27T03:00:17.193Z,71.36
2019-04-27T03:02:51.256Z,71.03
2019-04-27T03:05:26.243Z,70.53
2019-04-27T03:07:59.752Z,70.49
2019-04-27T03:10:32.511Z,70.20
2019-04-27T03:13:14.886Z,70.40
2019-04-27T03:16:00.527Z,70.47
2019-04-27T03:18:34.049Z,70.50
2019-04-27T03:21:13.006Z,70.16
2019-04-27T03:23:43.623Z,70.35
2019-04-27T03:26:19.636Z,69.66
2019-04-27T03:28:53.328Z,69.78
2019-04-27T03:31:25.986Z,69.68
2019-04-27T03:34:03.428Z,69.63
2019-04-27T03:36:31.999Z,69.54
2019-04-27T03:39:05.371Z,70.10
2019-04-27T03:41:37.430Z,70.17
2019-04-27T03:44:09.455Z,70.55
2019-04-27T03:46:41.080Z,70.52
2019-04-27T03:49:28.022Z,70.48
2019-04-27T03:51:49.818Z,70.52
2019-04-27T03:54:22.901Z,70.44
2019-04-27T03:56:56.276Z,70.36
2019-04-27T03:59:33.226Z,70.23
2019-04-27T04:02:05.110Z,69.98
2019-04-27T04:04:36.955Z,69.63
2019-04-27T04:07:15.092Z,69.96
2019-04-27T04:09:50.067Z,69.96
2019-04-27T04:12:22.805Z,69.61
2019-04-27T04:14:54.813Z,69.68
2019-04-27T04:17:30.706Z,69.58
2019-04-27T04:20:02.466Z,69.75
2019-04-27T04:22:34.321Z,69.49
2019-04-27T04:25:10.486Z,69.49
2019-04-27T04:27:42.806Z,69.43
2019-04-27T04:30:16.314Z,69.51
2019-04-27T04:32:49.831Z,69.39
2019-04-27T04:35:25.990Z,69.28
2019-04-27T04:38:00.234Z,69.26
2019-04-27T04:40:33.503Z,69.59
2019-04-27T04:43:12.881Z,69.40
2019-04-27T04:46:01.629Z,69.30
2019-04-27T04:48:33.373Z,68.78
2019-04-27T04:51:05.139Z,68.42
2019-04-27T04:53:36.890Z,68.71
2019-04-27T04:56:10.723Z,68.64
2019-04-27T04:58:42.522Z,68.42
2019-04-27T05:01:14.256Z,68.46
2019-04-27T05:03:46.002Z,68.48
2019-04-27T05:06:18.966Z,68.36
2019-04-27T05:08:51.922Z,68.34
2019-04-27T05:11:23.752Z,68.62
2019-04-27T05:13:55.515Z,68.56
2019-04-27T05:16:28.625Z,68.35
2019-04-27T05:19:00.884Z,68.29
2019-04-27T05:21:34.056Z,68.29
2019-04-27T05:24:06.436Z,67.99
2019-04-27T05:26:39.740Z,68.08
2019-04-27T05:29:11.962Z,67.89
2019-04-27T05:31:43.714Z,68.11
2019-04-27T05:34:15.451Z,68.06
2019-04-27T05:36:48.797Z,68.59
2019-04-27T05:39:25.161Z,68.43
2019-04-27T05:41:54.074Z,68.65
2019-04-27T05:44:30.313Z,68.79
2019-04-27T05:47:15.715Z,69.67
2019-04-27T05:49:48.555Z,69.88
2019-04-27T05:52:29.969Z,70.50
2019-04-27T05:55:02.969Z,70.93
2019-04-27T05:57:34.704Z,71.42
2019-04-27T06:00:09.665Z,71.49
2019-04-27T06:02:41.202Z,71.61
2019-04-27T06:05:13.386Z,71.63
2019-04-27T06:07:48.752Z,71.76
2019-04-27T06:10:24.102Z,72.03
2019-04-27T06:12:55.717Z,72.41
2019-04-27T06:15:28.405Z,71.95
2019-04-27T06:18:00.786Z,71.42
2019-04-27T06:20:32.529Z,71.31
2019-04-27T06:23:05.230Z,71.08
2019-04-27T06:25:39.224Z,71.49
2019-04-27T06:28:12.204Z,71.73
2019-04-27T06:30:43.935Z,71.88
2019-04-27T06:33:29.311Z,72.31
2019-04-27T06:35:49.529Z,72.40
2019-04-27T06:38:22.838Z,72.85
2019-04-27T06:40:54.575Z,72.96
2019-04-27T06:43:29.286Z,73.33
2019-04-27T06:46:01.201Z,73.07
2019-04-27T06:48:32.932Z,73.00
2019-04-27T06:51:05.657Z,72.65
2019-04-27T06:53:39.445Z,72.83
2019-04-27T06:56:11.330Z,72.66
2019-04-27T06:58:43.071Z,72.64
2019-04-27T07:01:14.843Z,72.26
2019-04-27T07:03:46.568Z,71.74
2019-04-27T07:06:18.985Z,71.52
2019-04-27T07:08:50.725Z,70.46
2019-04-27T07:11:22.735Z,70.04
2019-04-27T07:13:54.512Z,69.17
2019-04-27T07:16:26.675Z,68.94
2019-04-27T07:18:59.376Z,69.05
2019-04-27T07:21:31.753Z,68.92
2019-04-27T07:24:03.457Z,69.06
2019-04-27T07:26:35.532Z,69.70
2019-04-27T07:29:09.643Z,69.57
2019-04-27T07:31:41.993Z,70.37
2019-04-27T07:34:14.062Z,70.16
2019-04-27T07:36:45.960Z,69.94
2019-04-27T07:39:19.257Z,70.18
2019-04-27T07:41:51.246Z,69.67
2019-04-27T07:44:31.413Z,69.88
2019-04-27T07:47:16.647Z,69.69
2019-04-27T07:49:49.662Z,69.54
2019-04-27T07:52:21.628Z,69.44
2019-04-27T07:54:53.368Z,69.40
2019-04-27T07:57:25.106Z,69.46
2019-04-27T07:59:59.631Z,68.75
2019-04-27T08:02:31.464Z,69.06
2019-04-27T08:05:03.683Z,68.50
2019-04-27T08:07:35.214Z,68.62
2019-04-27T08:10:09.509Z,68.70
2019-04-27T08:12:40.924Z,69.05
2019-04-27T08:15:12.673Z,69.07
2019-04-27T08:17:44.415Z,69.67
2019-04-27T08:20:16.544Z,69.33
2019-04-27T08:22:49.673Z,68.86
2019-04-27T08:25:23.202Z,69.22
2019-04-27T08:27:57.810Z,69.21
2019-04-27T08:30:31.026Z,69.09
2019-04-27T08:33:04.311Z,69.13
2019-04-27T08:35:36.047Z,69.04
2019-04-27T08:38:09.039Z,68.58
2019-04-27T08:40:41.307Z,68.31
2019-04-27T08:43:13.055Z,67.80
2019-04-27T08:45:44.899Z,67.64
2019-04-27T08:48:33.367Z,67.37
2019-04-27T08:50:51.708Z,67.38
2019-04-27T08:53:23.565Z,67.39
2019-04-27T08:55:55.311Z,67.39
2019-04-27T08:58:28.667Z,68.04
2019-04-27T09:01:00.289Z,67.63
2019-04-27T09:03:32.046Z,68.29
2019-04-27T09:06:12.688Z,67.98
2019-04-27T09:08:49.607Z,67.77
2019-04-27T09:11:24.468Z,67.58
2019-04-27T09:14:00.071Z,67.76
2019-04-27T09:16:57.233Z,68.06
2019-04-27T09:19:37.169Z,67.73
2019-04-27T09:22:15.669Z,68.23
2019-04-27T09:24:43.592Z,68.43
2019-04-27T09:27:17.391Z,68.24
2019-04-27T09:29:49.965Z,68.33
2019-04-27T09:32:22.129Z,68.03
2019-04-27T09:34:53.671Z,67.83
2019-04-27T09:37:28.480Z,67.64
2019-04-27T09:40:00.322Z,67.62
2019-04-27T09:42:33.231Z,67.19
2019-04-27T09:45:18.903Z,67.03
2019-04-27T09:47:56.287Z,66.12
2019-04-27T09:50:31.368Z,65.51
2019-04-27T09:53:03.418Z,64.73
2019-04-27T09:55:36.887Z,65.14
2019-04-27T09:58:08.822Z,65.12
2019-04-27T10:00:41.100Z,66.46
2019-04-27T10:03:14.372Z,66.87
2019-04-27T10:05:47.740Z,67.39
2019-04-27T10:08:19.463Z,66.98
2019-04-27T10:10:51.903Z,66.86
2019-04-27T10:13:29.909Z,66.98
2019-04-27T10:16:09.089Z,67.16
2019-04-27T10:18:43.516Z,66.31
2019-04-27T10:21:16.297Z,65.52
2019-04-27T10:23:48.234Z,65.83
2019-04-27T10:26:21.760Z,65.68
2019-04-27T10:28:53.623Z,66.25
2019-04-27T10:31:25.307Z,65.52
2019-04-27T10:33:57.015Z,65.23
2019-04-27T10:36:40.831Z,64.97
2019-04-27T10:39:13.828Z,65.05
2019-04-27T10:41:49.345Z,65.34
2019-04-27T10:44:20.904Z,64.00
2019-04-27T10:46:54.645Z,64.24
2019-04-27T10:49:31.580Z,63.47
2019-04-27T10:52:03.553Z,63.08
2019-04-27T10:54:36.235Z,63.13
2019-04-27T10:57:09.940Z,63.04
2019-04-27T10:59:46.160Z,63.22
2019-04-27T11:02:18.792Z,62.56
2019-04-27T11:05:00.657Z,63.28
2019-04-27T11:07:34.087Z,62.33
2019-04-27T11:10:08.147Z,61.04
2019-04-27T11:12:46.970Z,60.78
2019-04-27T11:15:21.016Z,60.06
2019-04-27T11:17:53.544Z,59.85
2019-04-27T11:20:27.508Z,60.07
2019-04-27T11:23:07.228Z,59.06
2019-04-27T11:25:32.982Z,59.42
2019-04-27T11:28:05.800Z,57.74
2019-04-27T11:30:39.144Z,57.84
2019-04-27T11:33:10.977Z,59.15
2019-04-27T11:35:50.395Z,59.04
2019-04-27T11:38:24.465Z,60.07
2019-04-27T11:41:02.470Z,61.03
2019-04-27T11:43:36.602Z,60.92
2019-04-27T11:46:09.760Z,61.50
2019-04-27T11:48:41.756Z,60.94
2019-04-27T11:51:13.587Z,60.72
2019-04-27T11:53:46.823Z,60.63
2019-04-27T11:56:18.690Z,60.15
2019-04-27T11:58:50.549Z,60.47
2019-04-27T12:01:28.859Z,60.74
2019-04-27T12:04:05.865Z,60.96
2019-04-27T12:06:37.746Z,60.71
2019-04-27T12:09:10.163Z,60.87
2019-04-27T12:11:43.442Z,61.35
2019-04-27T12:14:16.651Z,61.06
2019-04-27T12:16:57.069Z,61.96
2019-04-27T12:19:29.792Z,61.76
2019-04-27T12:22:01.483Z,61.83
2019-04-27T12:24:33.391Z,61.75
2019-04-27T12:27:20.001Z,61.58
2019-04-27T12:30:06.271Z,61.55
2019-04-27T12:32:39.511Z,61.70
2019-04-27T12:35:11.600Z,59.05
2019-04-27T12:37:43.344Z,58.89
2019-04-27T12:40:16.717Z,58.56
2019-04-27T12:42:48.743Z,58.33
2019-04-27T12:45:20.547Z,58.28
2019-04-27T12:47:52.375Z,58.58
2019-04-27T12:50:26.080Z,57.93
2019-04-27T12:53:07.319Z,57.98
2019-04-27T12:55:38.949Z,57.31
2019-04-27T12:58:21.926Z,57.49
2019-04-27T13:00:58.338Z,56.31
2019-04-27T13:03:31.146Z,55.57
2019-04-27T13:06:02.855Z,55.22
2019-04-27T13:08:35.728Z,55.75
2019-04-27T13:11:10.935Z,55.13
2019-04-27T13:13:43.923Z,54.20
2019-04-27T13:19:33.097Z,54.62
2019-04-27T13:22:06.171Z,54.10
2019-04-27T13:24:39.466Z,54.25
2019-04-27T13:27:13.113Z,54.17
2019-04-27T13:29:47.745Z,52.80
2019-04-27T13:32:19.552Z,53.34
2019-04-27T13:34:51.942Z,53.08
2019-04-27T13:37:46.735Z,53.41
2019-04-27T13:40:20.842Z,53.83
2019-04-27T13:42:58.449Z,53.03
2019-04-27T13:45:41.481Z,52.26
2019-04-27T13:48:17.064Z,51.88
2019-04-27T13:50:51.029Z,51.47
2019-04-27T13:53:22.864Z,50.81
2019-04-27T13:55:56.629Z,51.97
2019-04-27T13:58:28.254Z,51.54
2019-04-27T14:00:59.789Z,52.30
2019-04-27T14:03:31.638Z,52.14
2019-04-27T14:06:03.371Z,52.21
2019-04-27T14:08:35.117Z,52.72
2019-04-27T14:11:06.857Z,51.35
2019-04-27T14:13:39.167Z,52.43
2019-04-27T14:16:11.302Z,53.25
2019-04-27T14:18:43.061Z,53.52
2019-04-27T14:21:14.794Z,52.97
2019-04-27T14:23:48.416Z,53.93
2019-04-27T14:26:20.229Z,53.41
2019-04-27T14:28:59.437Z,54.00
2019-04-27T14:31:35.540Z,53.91
2019-04-27T14:34:15.303Z,54.41
2019-04-27T14:36:48.871Z,53.65
2019-04-27T14:39:28.569Z,52.82
2019-04-27T14:42:10.294Z,52.89
2019-04-27T14:44:48.940Z,53.00
2019-04-27T14:47:20.875Z,53.22
2019-04-27T14:50:05.963Z,53.19
2019-04-27T14:52:30.549Z,52.32
2019-04-27T14:55:11.635Z,52.14
2019-04-27T14:57:43.805Z,52.90
2019-04-27T15:00:19.168Z,52.16
2019-04-27T15:02:50.848Z,51.63
2019-04-27T15:05:25.405Z,51.27
2019-04-27T15:08:01.609Z,51.13
2019-04-27T15:10:32.880Z,50.89
2019-04-27T15:13:06.401Z,50.92
2019-04-27T15:15:48.008Z,49.84
2019-04-27T15:18:42.165Z,51.12
2019-04-27T15:21:25.476Z,51.26
2019-04-27T15:24:02.428Z,50.39
2019-04-27T15:26:31.725Z,51.28
2019-04-27T15:29:05.108Z,51.05
2019-04-27T15:31:39.047Z,50.98
2019-04-27T15:34:27.643Z,51.54
2019-04-27T15:37:03.308Z,50.37
2019-04-27T15:39:52.714Z,50.66
2019-04-27T15:42:48.977Z,51.92
2019-04-27T15:45:20.542Z,51.59
2019-04-27T15:47:55.662Z,50.72
2019-04-27T15:50:32.167Z,50.99
2019-04-27T15:53:12.546Z,51.52
2019-04-27T15:55:47.186Z,51.46
2019-04-27T15:58:41.448Z,50.96
2019-04-27T16:01:13.319Z,52.31
2019-04-27T16:03:48.166Z,51.95
2019-04-27T16:06:21.722Z,52.86
2019-04-27T16:08:59.037Z,52.27
2019-04-27T16:11:36.206Z,52.45
2019-04-27T16:14:10.952Z,52.79
2019-04-27T16:16:42.598Z,52.78
2019-04-27T16:19:14.333Z,53.47
2019-04-27T16:21:54.326Z,53.57
2019-04-27T16:24:28.989Z,53.30
2019-04-27T16:27:03.559Z,52.63
2019-04-27T16:29:35.199Z,53.54
2019-04-27T16:32:11.144Z,53.45
2019-04-27T16:34:41.355Z,53.65
2019-04-27T16:37:20.733Z,53.64
2019-04-27T16:39:49.593Z,53.59
2019-04-27T16:42:21.385Z,53.54
2019-04-27T16:44:53.328Z,54.15
2019-04-27T16:47:25.177Z,54.06
2019-04-27T16:49:58.637Z,54.25
2019-04-27T16:52:34.372Z,54.98
2019-04-27T16:55:12.619Z,55.62
2019-04-27T16:57:47.353Z,55.36
2019-04-27T17:00:30.214Z,55.61
2019-04-27T17:03:01.374Z,55.29
2019-04-27T17:05:34.828Z,56.04
2019-04-27T17:08:14.245Z,56.06
2019-04-27T17:10:40.617Z,56.26
2019-04-27T17:13:19.496Z,56.79
2019-04-27T17:16:11.072Z,56.15
2019-04-27T17:19:06.230Z,56.10
2019-04-27T17:21:41.258Z,56.94
2019-04-27T17:24:17.934Z,57.73
2019-04-27T17:26:54.393Z,58.00
2019-04-27T17:29:32.617Z,57.28
2019-04-27T17:32:06.743Z,58.52
2019-04-27T17:34:42.233Z,59.69
2019-04-27T17:37:20.564Z,59.20
2019-04-27T17:39:53.570Z,59.64
2019-04-27T17:42:27.499Z,60.05
2019-04-27T17:45:00.562Z,60.85
2019-04-27T17:47:33.037Z,61.24
2019-04-27T17:50:05.677Z,61.50
2019-04-27T17:52:43.563Z,62.04
2019-04-27T17:55:17.860Z,63.07
2019-04-27T17:57:50.493Z,64.19
2019-04-27T18:00:24.060Z,65.62
2019-04-27T18:02:58.059Z,68.20
2019-04-27T18:05:39.019Z,68.03
2019-04-27T18:08:18.354Z,68.69
2019-04-27T18:10:57.540Z,69.07
2019-04-27T18:13:30.956Z,69.77
2019-04-27T18:16:08.988Z,69.37
2019-04-27T18:19:05.084Z,70.06
2019-04-27T18:21:38.640Z,70.96
2019-04-27T18:24:18.543Z,71.61
2019-04-27T18:27:08.999Z,72.41
2019-04-27T18:29:42.111Z,72.82
2019-04-27T18:32:17.949Z,73.95
2019-04-27T18:34:55.537Z,74.26
2019-04-27T18:37:28.284Z,73.80
2019-04-27T18:40:00.011Z,73.11
2019-04-27T18:42:31.768Z,73.30
2019-04-27T18:45:08.128Z,74.48
2019-04-27T18:47:41.492Z,75.71
2019-04-27T18:50:24.268Z,75.59
2019-04-27T18:52:58.136Z,75.35
2019-04-27T18:55:30.563Z,75.59
2019-04-27T18:58:02.475Z,75.82
2019-04-27T19:00:35.455Z,75.23
2019-04-27T19:03:09.323Z,76.85
2019-04-27T19:05:43.583Z,76.69
2019-04-27T19:08:15.292Z,77.34
2019-04-27T19:10:47.297Z,76.97
2019-04-27T19:13:19.308Z,76.61
2019-04-27T19:15:54.025Z,76.68
2019-04-27T19:18:25.857Z,77.63
2019-04-27T19:20:58.450Z,78.21
2019-04-27T19:23:31.199Z,78.04
2019-04-27T19:26:12.107Z,78.57
2019-04-27T19:29:03.078Z,77.94
2019-04-27T19:32:00.158Z,77.44
2019-04-27T19:34:31.794Z,77.98
2019-04-27T19:37:08.296Z,77.76
2019-04-27T19:39:39.829Z,78.41
2019-04-27T19:42:23.922Z,78.73
2019-04-27T19:44:59.048Z,79.33
2019-04-27T19:47:38.461Z,78.45
2019-04-27T19:50:13.814Z,78.67
2019-04-27T19:52:58.623Z,78.33
2019-04-27T19:55:33.811Z,77.76
2019-04-27T19:58:13.932Z,77.66
2019-04-27T20:00:51.950Z,78.00
2019-04-27T20:03:39.834Z,77.91
2019-04-27T20:06:11.509Z,79.15
2019-04-27T20:08:54.186Z,79.46
2019-04-27T20:11:32.932Z,78.73
2019-04-27T20:14:14.870Z,78.42
2019-04-27T20:16:51.939Z,78.82
2019-04-27T20:19:32.038Z,78.91
2019-04-27T20:22:08.266Z,79.33
2019-04-27T20:24:44.614Z,78.99
2019-04-27T20:27:18.096Z,79.36
2019-04-27T20:29:58.480Z,79.60
2019-04-27T20:32:40.671Z,79.98
2019-04-27T20:35:12.962Z,80.70
2019-04-27T20:37:45.988Z,81.18
2019-04-27T20:40:22.185Z,80.92
2019-04-27T20:42:59.470Z,80.66
2019-04-27T20:45:32.744Z,80.50
2019-04-27T20:48:06.244Z,80.41
2019-04-27T20:50:38.003Z,80.42
2019-04-27T20:53:13.731Z,81.10
2019-04-27T20:55:48.453Z,81.49
2019-04-27T21:01:13.039Z,80.92
2019-04-27T21:03:57.347Z,80.83
2019-04-27T21:06:37.723Z,81.14
2019-04-27T21:09:21.304Z,81.60
2019-04-27T21:12:00.403Z,81.64
2019-04-27T21:14:35.259Z,81.85
2019-04-27T21:17:14.730Z,81.94
2019-04-27T21:19:48.609Z,81.56
2019-04-27T21:22:31.469Z,81.45
2019-04-27T21:25:08.018Z,80.99
2019-04-27T21:27:43.801Z,81.40
2019-04-27T21:30:18.933Z,81.73
2019-04-27T21:32:54.361Z,81.62
2019-04-27T21:35:29.229Z,81.67
2019-04-27T21:38:02.218Z,81.52
2019-04-27T21:40:36.945Z,81.23
2019-04-27T21:43:11.330Z,81.07
2019-04-27T21:45:47.788Z,81.09
2019-04-27T21:48:24.351Z,80.88
2019-04-27T21:50:58.683Z,80.61
2019-04-27T21:53:35.814Z,80.37
2019-04-27T21:56:11.834Z,79.98
2019-04-27T21:58:51.138Z,80.17
2019-04-27T22:01:31.671Z,79.84
2019-04-27T22:04:15.777Z,79.38
2019-04-27T22:06:51.106Z,79.53
2019-04-27T22:09:23.688Z,79.87
2019-04-27T22:12:02.468Z,79.83
2019-04-27T22:14:46.562Z,80.19
2019-04-27T22:17:25.257Z,80.65
2019-04-27T22:19:58.266Z,81.45
2019-04-27T22:22:31.765Z,81.51
2019-04-27T22:25:07.579Z,82.05
2019-04-27T22:27:39.119Z,82.67
2019-04-27T22:30:11.226Z,82.91
2019-04-27T22:32:42.950Z,82.82
2019-04-27T22:35:15.351Z,83.25
2019-04-27T22:37:47.089Z,83.28
2019-04-27T22:40:21.480Z,83.39
2019-04-27T22:43:11.851Z,83.47
2019-04-27T22:45:45.196Z,83.46
2019-04-27T22:48:16.977Z,83.51
2019-04-27T22:50:48.613Z,83.13
2019-04-27T22:53:21.194Z,83.12
2019-04-27T22:56:11.442Z,83.15
2019-04-27T22:58:57.485Z,83.28
2019-04-27T23:01:27.746Z,83.56
2019-04-27T23:04:07.122Z,83.79
2019-04-27T23:06:38.716Z,83.98
2019-04-27T23:09:11.774Z,84.07
2019-04-27T23:11:45.616Z,84.46
2019-04-27T23:14:17.492Z,84.65
2019-04-27T23:16:50.867Z,84.80
2019-04-27T23:19:24.055Z,85.22
2019-04-27T23:21:55.792Z,84.91
2019-04-27T23:24:27.645Z,85.02
2019-04-27T23:27:03.408Z,84.84
2019-04-27T23:29:33.593Z,84.48
2019-04-27T23:32:08.503Z,84.24
2019-04-27T23:34:41.495Z,83.88
2019-04-27T23:37:13.470Z,84.06
2019-04-27T23:40:03.821Z,84.06
2019-04-27T23:42:35.420Z,83.99
2019-04-27T23:45:12.112Z,83.80
2019-04-27T23:47:44.472Z,83.87
2019-04-27T23:50:19.237Z,83.76
2019-04-27T23:52:56.935Z,83.68
2019-04-27T23:55:34.363Z,83.49
2019-04-27T23:58:06.371Z,83.62
